Drew Plt, Maine
Current Conditions -  °F | °C
As of 9:53 AM on Monday 22 Dec 2014 (Local Time) from KHUL Reporting Station
Overcast Overcast  
Wind Chill: 26°   Ceiling: 4200
Heat Index: 26°   Visibility: 10mi
Dew Point: 22°   Wind: 3mph
Humidity: 84%   Direction: NA
Pressure: 30.43"   Gusts: NA
Location:  45.7877°N, 68.0764°W
Report Text: KHUL 221453Z AUTO VRB03KT 10SM SCT022 OVC042 M03/M06 A3043 RMK AO2 SLP313 T10331056 51011
Loading
Personal Weather Stations






























Interactive Weather Map New forecast layout! Learn more

10-Day Weather Forecast

Advertisements
Track Severe Weather on mobile